sensor_id;sensor_type;location;lat;lon;timestamp;pressure;altitude;pressure_sealevel;temperature;humidity
70925;BME280;58577;52.410;13.242;2022-07-18T00:01:45;102095.69;;;13.74;71.22
70925;BME280;58577;52.410;13.242;2022-07-18T00:04:14;102098.38;;;13.74;70.44
70925;BME280;58577;52.410;13.242;2022-07-18T00:06:39;102091.41;;;13.71;70.03
70925;BME280;58577;52.410;13.242;2022-07-18T00:09:05;102092.84;;;13.75;70.48
70925;BME280;58577;52.410;13.242;2022-07-18T00:11:30;102089.47;;;13.83;69.29
70925;BME280;58577;52.410;13.242;2022-07-18T00:13:56;102081.66;;;13.80;70.13
70925;BME280;58577;52.410;13.242;2022-07-18T00:16:22;102087.47;;;13.75;69.05
70925;BME280;58577;52.410;13.242;2022-07-18T00:18:49;102075.41;;;13.80;70.28
70925;BME280;58577;52.410;13.242;2022-07-18T00:21:15;102072.25;;;13.74;68.85
70925;BME280;58577;52.410;13.242;2022-07-18T00:23:40;102076.50;;;13.77;68.31
70925;BME280;58577;52.410;13.242;2022-07-18T00:26:06;102082.50;;;13.81;68.36
70925;BME280;58577;52.410;13.242;2022-07-18T00:28:31;102078.81;;;13.82;68.96
70925;BME280;58577;52.410;13.242;2022-07-18T00:30:57;102093.78;;;13.95;68.35
70925;BME280;58577;52.410;13.242;2022-07-18T00:33:22;102095.53;;;14.06;67.42
70925;BME280;58577;52.410;13.242;2022-07-18T00:35:48;102079.91;;;14.10;70.03
70925;BME280;58577;52.410;13.242;2022-07-18T00:38:14;102093.09;;;14.03;70.85
70925;BME280;58577;52.410;13.242;2022-07-18T00:40:39;102106.56;;;13.93;68.06
70925;BME280;58577;52.410;13.242;2022-07-18T00:43:05;102110.66;;;13.88;68.08
70925;BME280;58577;52.410;13.242;2022-07-18T00:45:30;102095.72;;;13.84;69.87
70925;BME280;58577;52.410;13.242;2022-07-18T00:47:56;102102.38;;;13.80;69.88
70925;BME280;58577;52.410;13.242;2022-07-18T00:50:22;102097.38;;;13.75;69.89
70925;BME280;58577;52.410;13.242;2022-07-18T00:52:49;102096.59;;;13.63;69.84
70925;BME280;58577;52.410;13.242;2022-07-18T00:55:15;102098.16;;;13.56;70.44
70925;BME280;58577;52.410;13.242;2022-07-18T00:57:41;102102.47;;;13.47;70.62
70925;BME280;58577;52.410;13.242;2022-07-18T01:00:11;102098.81;;;13.48;69.57
70925;BME280;58577;52.410;13.242;2022-07-18T01:02:55;102093.81;;;13.44;69.30
70925;BME280;58577;52.410;13.242;2022-07-18T01:05:21;102086.97;;;13.40;71.26
70925;BME280;58577;52.410;13.242;2022-07-18T01:07:47;102091.06;;;13.34;70.86
70925;BME280;58577;52.410;13.242;2022-07-18T01:10:13;102097.56;;;13.31;70.54
70925;BME280;58577;52.410;13.242;2022-07-18T01:12:38;102090.84;;;13.26;71.55
70925;BME280;58577;52.410;13.242;2022-07-18T01:15:06;102088.66;;;13.20;71.83
70925;BME280;58577;52.410;13.242;2022-07-18T01:17:32;102090.75;;;13.16;70.77
70925;BME280;58577;52.410;13.242;2022-07-18T01:19:58;102087.78;;;13.19;72.55
70925;BME280;58577;52.410;13.242;2022-07-18T01:22:24;102098.72;;;13.17;72.56
70925;BME280;58577;52.410;13.242;2022-07-18T01:24:49;102097.41;;;13.12;73.19
70925;BME280;58577;52.410;13.242;2022-07-18T01:27:20;102089.09;;;13.04;72.65
70925;BME280;58577;52.410;13.242;2022-07-18T01:29:49;102082.97;;;13.02;73.63
70925;BME280;58577;52.410;13.242;2022-07-18T01:32:15;102088.31;;;12.92;72.77
70925;BME280;58577;52.410;13.242;2022-07-18T01:34:41;102081.59;;;12.86;73.03
70925;BME280;58577;52.410;13.242;2022-07-18T01:37:08;102084.69;;;12.82;73.80
70925;BME280;58577;52.410;13.242;2022-07-18T01:39:34;102081.66;;;12.75;73.40
70925;BME280;58577;52.410;13.242;2022-07-18T01:42:03;102086.66;;;12.79;73.37
70925;BME280;58577;52.410;13.242;2022-07-18T01:44:29;102083.22;;;12.77;73.38
70925;BME280;58577;52.410;13.242;2022-07-18T01:46:55;102085.31;;;12.74;74.08
70925;BME280;58577;52.410;13.242;2022-07-18T01:49:21;102086.56;;;12.70;74.63
70925;BME280;58577;52.410;13.242;2022-07-18T01:51:49;102082.66;;;12.63;74.77
70925;BME280;58577;52.410;13.242;2022-07-18T01:54:15;102077.06;;;12.54;75.00
70925;BME280;58577;52.410;13.242;2022-07-18T01:56:41;102088.09;;;12.51;74.75
70925;BME280;58577;52.410;13.242;2022-07-18T01:59:07;102087.63;;;12.46;75.19
70925;BME280;58577;52.410;13.242;2022-07-18T02:01:32;102097.53;;;12.46;75.29
70925;BME280;58577;52.410;13.242;2022-07-18T02:03:58;102098.16;;;12.38;75.13
70925;BME280;58577;52.410;13.242;2022-07-18T02:06:23;102095.59;;;12.36;76.28
70925;BME280;58577;52.410;13.242;2022-07-18T02:08:49;102089.84;;;12.30;76.33
70925;BME280;58577;52.410;13.242;2022-07-18T02:11:14;102092.66;;;12.28;76.36
70925;BME280;58577;52.410;13.242;2022-07-18T02:13:40;102088.50;;;12.24;76.06
70925;BME280;58577;52.410;13.242;2022-07-18T02:16:06;102081.78;;;12.18;75.72
70925;BME280;58577;52.410;13.242;2022-07-18T02:18:32;102074.00;;;12.15;76.65
70925;BME280;58577;52.410;13.242;2022-07-18T02:21:01;102075.97;;;12.13;76.79
70925;BME280;58577;52.410;13.242;2022-07-18T02:23:27;102076.06;;;12.12;77.31
70925;BME280;58577;52.410;13.242;2022-07-18T02:25:53;102066.91;;;12.03;77.40
70925;BME280;58577;52.410;13.242;2022-07-18T02:28:18;102066.78;;;12.05;78.51
70925;BME280;58577;52.410;13.242;2022-07-18T02:30:44;102065.09;;;12.04;79.23
70925;BME280;58577;52.410;13.242;2022-07-18T02:33:09;102066.78;;;11.93;79.07
70925;BME280;58577;52.410;13.242;2022-07-18T02:35:35;102069.47;;;11.93;79.31
70925;BME280;58577;52.410;13.242;2022-07-18T02:38:01;102070.22;;;11.84;78.56
70925;BME280;58577;52.410;13.242;2022-07-18T02:40:27;102072.28;;;11.80;78.80
70925;BME280;58577;52.410;13.242;2022-07-18T02:42:52;102065.06;;;11.81;79.14
70925;BME280;58577;52.410;13.242;2022-07-18T02:45:18;102064.56;;;11.76;79.72
70925;BME280;58577;52.410;13.242;2022-07-18T02:47:44;102070.44;;;11.70;79.37
70925;BME280;58577;52.410;13.242;2022-07-18T02:50:10;102071.78;;;11.75;79.53
70925;BME280;58577;52.410;13.242;2022-07-18T02:52:38;102073.63;;;11.75;80.28
70925;BME280;58577;52.410;13.242;2022-07-18T02:55:04;102067.75;;;11.70;80.71
70925;BME280;58577;52.410;13.242;2022-07-18T02:57:30;102079.72;;;11.66;80.36
70925;BME280;58577;52.410;13.242;2022-07-18T02:59:56;102075.56;;;11.61;80.26
70925;BME280;58577;52.410;13.242;2022-07-18T03:02:21;102071.03;;;11.51;80.76
70925;BME280;58577;52.410;13.242;2022-07-18T03:04:47;102066.53;;;11.51;81.36
70925;BME280;58577;52.410;13.242;2022-07-18T03:07:12;102070.81;;;11.54;81.34
70925;BME280;58577;52.410;13.242;2022-07-18T03:09:38;102074.34;;;11.54;81.75
70925;BME280;58577;52.410;13.242;2022-07-18T03:12:04;102060.06;;;11.54;81.72
70925;BME280;58577;52.410;13.242;2022-07-18T03:14:29;102062.13;;;11.50;81.68
70925;BME280;58577;52.410;13.242;2022-07-18T03:16:55;102063.47;;;11.45;81.79
70925;BME280;58577;52.410;13.242;2022-07-18T03:19:21;102061.75;;;11.44;81.94
70925;BME280;58577;52.410;13.242;2022-07-18T03:21:47;102054.03;;;11.39;81.89
70925;BME280;58577;52.410;13.242;2022-07-18T03:24:12;102061.38;;;11.37;82.03
70925;BME280;58577;52.410;13.242;2022-07-18T03:26:40;102061.38;;;11.37;82.40
70925;BME280;58577;52.410;13.242;2022-07-18T03:29:05;102059.31;;;11.40;82.48
70925;BME280;58577;52.410;13.242;2022-07-18T03:31:31;102059.53;;;11.37;82.80
70925;BME280;58577;52.410;13.242;2022-07-18T03:33:57;102059.31;;;11.40;82.93
70925;BME280;58577;52.410;13.242;2022-07-18T03:36:22;102061.03;;;11.41;82.50
70925;BME280;58577;52.410;13.242;2022-07-18T03:38:48;102063.94;;;11.38;82.61
70925;BME280;58577;52.410;13.242;2022-07-18T03:41:13;102050.50;;;11.38;82.65
70925;BME280;58577;52.410;13.242;2022-07-18T03:43:39;102056.00;;;11.37;82.34
70925;BME280;58577;52.410;13.242;2022-07-18T03:46:06;102059.19;;;11.42;83.03
70925;BME280;58577;52.410;13.242;2022-07-18T03:48:32;102064.69;;;11.40;83.59
70925;BME280;58577;52.410;13.242;2022-07-18T03:50:58;102069.22;;;11.40;82.92
70925;BME280;58577;52.410;13.242;2022-07-18T03:53:24;102070.91;;;11.41;82.27
70925;BME280;58577;52.410;13.242;2022-07-18T03:55:50;102064.78;;;11.39;82.44
70925;BME280;58577;52.410;13.242;2022-07-18T03:58:16;102069.44;;;11.37;82.51
70925;BME280;58577;52.410;13.242;2022-07-18T04:00:41;102072.22;;;11.35;82.75
70925;BME280;58577;52.410;13.242;2022-07-18T04:03:07;102067.75;;;11.36;82.82
70925;BME280;58577;52.410;13.242;2022-07-18T04:05:32;102069.31;;;11.38;83.58
70925;BME280;58577;52.410;13.242;2022-07-18T04:07:58;102076.78;;;11.46;83.51
70925;BME280;58577;52.410;13.242;2022-07-18T04:10:24;102077.63;;;11.47;83.65
70925;BME280;58577;52.410;13.242;2022-07-18T04:12:54;102074.59;;;11.51;83.20
70925;BME280;58577;52.410;13.242;2022-07-18T04:15:21;102067.13;;;11.55;83.04
70925;BME280;58577;52.410;13.242;2022-07-18T04:17:47;102074.09;;;11.57;82.65
70925;BME280;58577;52.410;13.242;2022-07-18T04:20:17;102065.78;;;11.60;82.46
70925;BME280;58577;52.410;13.242;2022-07-18T04:23:03;102062.50;;;11.68;82.50
70925;BME280;58577;52.410;13.242;2022-07-18T04:25:34;102071.91;;;11.74;82.03
70925;BME280;58577;52.410;13.242;2022-07-18T04:27:59;102058.97;;;11.79;81.83
70925;BME280;58577;52.410;13.242;2022-07-18T04:30:26;102068.97;;;11.88;82.17
70925;BME280;58577;52.410;13.242;2022-07-18T04:32:53;102068.88;;;11.90;81.88
70925;BME280;58577;52.410;13.242;2022-07-18T04:35:18;102067.41;;;11.97;80.80
70925;BME280;58577;52.410;13.242;2022-07-18T04:37:44;102065.81;;;12.06;81.32
70925;BME280;58577;52.410;13.242;2022-07-18T04:40:10;102067.50;;;12.18;81.18
70925;BME280;58577;52.410;13.242;2022-07-18T04:42:37;102081.66;;;12.31;80.61
70925;BME280;58577;52.410;13.242;2022-07-18T04:45:04;102072.22;;;12.37;80.08
70925;BME280;58577;52.410;13.242;2022-07-18T04:47:31;102071.84;;;12.42;80.81
70925;BME280;58577;52.410;13.242;2022-07-18T04:49:57;102072.31;;;12.47;80.33
70925;BME280;58577;52.410;13.242;2022-07-18T04:52:23;102071.81;;;12.53;80.66
70925;BME280;58577;52.410;13.242;2022-07-18T04:54:49;102062.97;;;12.62;80.91
70925;BME280;58577;52.410;13.242;2022-07-18T04:57:16;102056.09;;;12.69;81.12
70925;BME280;58577;52.410;13.242;2022-07-18T04:59:42;102058.16;;;12.77;81.40
70925;BME280;58577;52.410;13.242;2022-07-18T05:02:08;102058.22;;;12.87;82.45
70925;BME280;58577;52.410;13.242;2022-07-18T05:04:34;102055.00;;;12.93;80.21
70925;BME280;58577;52.410;13.242;2022-07-18T05:07:00;102062.31;;;13.02;79.43
70925;BME280;58577;52.410;13.242;2022-07-18T05:09:26;102053.41;;;13.11;79.50
70925;BME280;58577;52.410;13.242;2022-07-18T05:11:52;102055.31;;;13.21;78.77
70925;BME280;58577;52.410;13.242;2022-07-18T05:14:18;102055.16;;;13.33;78.24
70925;BME280;58577;52.410;13.242;2022-07-18T05:16:43;102060.59;;;13.43;78.15
70925;BME280;58577;52.410;13.242;2022-07-18T05:19:09;102057.97;;;13.53;77.41
70925;BME280;58577;52.410;13.242;2022-07-18T05:21:34;102054.59;;;13.61;76.66
70925;BME280;58577;52.410;13.242;2022-07-18T05:24:00;102052.66;;;13.72;76.29
70925;BME280;58577;52.410;13.242;2022-07-18T05:26:26;102053.41;;;13.84;76.40
70925;BME280;58577;52.410;13.242;2022-07-18T05:28:52;102048.88;;;13.94;75.41
70925;BME280;58577;52.410;13.242;2022-07-18T05:31:17;102057.69;;;14.37;74.46
70925;BME280;58577;52.410;13.242;2022-07-18T05:33:43;102067.50;;;14.97;72.43
70925;BME280;58577;52.410;13.242;2022-07-18T05:36:09;102076.47;;;15.07;70.11
70925;BME280;58577;52.410;13.242;2022-07-18T05:38:35;102075.88;;;15.23;69.35
70925;BME280;58577;52.410;13.242;2022-07-18T05:41:00;102078.59;;;15.80;67.77
70925;BME280;58577;52.410;13.242;2022-07-18T05:43:26;102082.09;;;16.81;65.04
70925;BME280;58577;52.410;13.242;2022-07-18T05:45:51;102090.06;;;16.47;64.25
70925;BME280;58577;52.410;13.242;2022-07-18T05:48:17;102077.19;;;16.31;65.07
70925;BME280;58577;52.410;13.242;2022-07-18T05:50:42;102054.63;;;16.12;65.38
70925;BME280;58577;52.410;13.242;2022-07-18T05:53:09;102051.69;;;16.06;65.73
70925;BME280;58577;52.410;13.242;2022-07-18T05:55:35;102056.69;;;16.01;65.67
70925;BME280;58577;52.410;13.242;2022-07-18T05:58:01;102061.13;;;16.02;65.30
70925;BME280;58577;52.410;13.242;2022-07-18T06:00:26;102064.75;;;16.10;65.41
70925;BME280;58577;52.410;13.242;2022-07-18T06:02:52;102054.56;;;16.22;65.34
70925;BME280;58577;52.410;13.242;2022-07-18T06:05:18;102063.59;;;16.59;64.93
70925;BME280;58577;52.410;13.242;2022-07-18T06:07:43;102102.94;;;16.99;62.20
70925;BME280;58577;52.410;13.242;2022-07-18T06:10:09;102108.47;;;16.89;61.48
70925;BME280;58577;52.410;13.242;2022-07-18T06:12:35;102086.22;;;16.85;62.40
70925;BME280;58577;52.410;13.242;2022-07-18T06:15:01;102097.63;;;16.89;62.14
70925;BME280;58577;52.410;13.242;2022-07-18T06:17:26;102095.59;;;16.91;62.26
70925;BME280;58577;52.410;13.242;2022-07-18T06:19:56;102078.84;;;16.96;62.55
70925;BME280;58577;52.410;13.242;2022-07-18T06:22:22;102089.47;;;17.07;62.03
70925;BME280;58577;52.410;13.242;2022-07-18T06:24:48;102081.22;;;17.17;61.90
70925;BME280;58577;52.410;13.242;2022-07-18T06:27:14;102085.06;;;17.32;61.96
70925;BME280;58577;52.410;13.242;2022-07-18T06:29:40;102098.06;;;17.46;61.54
70925;BME280;58577;52.410;13.242;2022-07-18T06:32:06;102128.63;;;18.09;58.82
70925;BME280;58577;52.410;13.242;2022-07-18T06:34:34;102142.50;;;18.91;55.57
70925;BME280;58577;52.410;13.242;2022-07-18T06:37:00;102133.00;;;19.28;56.21
70925;BME280;58577;52.410;13.242;2022-07-18T06:39:25;102149.09;;;19.71;53.53
70925;BME280;58577;52.410;13.242;2022-07-18T06:41:51;102124.78;;;20.56;52.33
70925;BME280;58577;52.410;13.242;2022-07-18T06:44:16;102139.41;;;22.45;48.43
70925;BME280;58577;52.410;13.242;2022-07-18T06:46:42;102139.41;;;24.16;42.99
70925;BME280;58577;52.410;13.242;2022-07-18T06:49:08;102130.84;;;25.34;40.20
70925;BME280;58577;52.410;13.242;2022-07-18T06:51:34;102131.03;;;26.38;38.75
70925;BME280;58577;52.410;13.242;2022-07-18T06:54:00;102122.06;;;26.94;36.62
70925;BME280;58577;52.410;13.242;2022-07-18T06:56:25;102107.56;;;27.56;36.42
70925;BME280;58577;52.410;13.242;2022-07-18T06:58:51;102104.88;;;27.68;34.62
70925;BME280;58577;52.410;13.242;2022-07-18T07:01:19;102110.44;;;28.23;34.62
70925;BME280;58577;52.410;13.242;2022-07-18T07:03:45;102097.47;;;27.87;34.89
70925;BME280;58577;52.410;13.242;2022-07-18T07:06:11;102098.78;;;28.02;34.02
70925;BME280;58577;52.410;13.242;2022-07-18T07:08:36;102089.88;;;28.68;33.00
70925;BME280;58577;52.410;13.242;2022-07-18T07:11:02;102080.72;;;29.09;32.79
70925;BME280;58577;52.410;13.242;2022-07-18T07:13:28;102069.22;;;28.70;32.66
70925;BME280;58577;52.410;13.242;2022-07-18T07:15:53;102058.00;;;28.23;33.61
70925;BME280;58577;52.410;13.242;2022-07-18T07:18:19;102036.16;;;28.52;35.96
70925;BME280;58577;52.410;13.242;2022-07-18T07:20:46;102076.19;;;29.27;31.84
70925;BME280;58577;52.410;13.242;2022-07-18T07:23:12;102080.69;;;29.80;29.60
70925;BME280;58577;52.410;13.242;2022-07-18T07:25:38;102050.81;;;28.52;32.58
70925;BME280;58577;52.410;13.242;2022-07-18T07:28:04;102055.63;;;28.57;31.48
70925;BME280;58577;52.410;13.242;2022-07-18T07:30:32;102072.53;;;29.85;29.00
70925;BME280;58577;52.410;13.242;2022-07-18T07:32:57;102056.75;;;30.55;28.86
70925;BME280;58577;52.410;13.242;2022-07-18T07:35:24;102056.44;;;30.11;29.15
70925;BME280;58577;52.410;13.242;2022-07-18T07:37:57;102049.41;;;30.32;28.75
70925;BME280;58577;52.410;13.242;2022-07-18T07:40:25;102046.75;;;29.32;29.15
70925;BME280;58577;52.410;13.242;2022-07-18T07:42:51;102048.53;;;30.60;28.35
70925;BME280;58577;52.410;13.242;2022-07-18T07:45:18;102057.28;;;29.83;29.20
70925;BME280;58577;52.410;13.242;2022-07-18T07:47:44;102026.19;;;29.92;31.10
70925;BME280;58577;52.410;13.242;2022-07-18T07:50:11;102037.31;;;30.38;29.56
70925;BME280;58577;52.410;13.242;2022-07-18T07:52:38;102046.84;;;30.02;27.98
70925;BME280;58577;52.410;13.242;2022-07-18T07:55:07;102038.97;;;29.70;29.22
70925;BME280;58577;52.410;13.242;2022-07-18T07:57:33;102055.72;;;29.51;29.06
70925;BME280;58577;52.410;13.242;2022-07-18T08:00:05;102032.16;;;29.01;31.13
70925;BME280;58577;52.410;13.242;2022-07-18T08:02:37;102048.84;;;30.18;28.83
70925;BME280;58577;52.410;13.242;2022-07-18T08:05:03;102052.59;;;29.59;29.00
70925;BME280;58577;52.410;13.242;2022-07-18T08:07:29;102046.81;;;29.49;29.59
70925;BME280;58577;52.410;13.242;2022-07-18T08:09:54;102056.22;;;29.48;29.77
70925;BME280;58577;52.410;13.242;2022-07-18T08:12:20;102042.91;;;28.68;30.31
70925;BME280;58577;52.410;13.242;2022-07-18T08:14:45;102048.53;;;29.27;29.13
70925;BME280;58577;52.410;13.242;2022-07-18T08:17:11;102058.41;;;30.39;28.93
70925;BME280;58577;52.410;13.242;2022-07-18T08:19:36;102048.66;;;30.08;28.31
70925;BME280;58577;52.410;13.242;2022-07-18T08:22:02;102049.94;;;30.05;28.47
70925;BME280;58577;52.410;13.242;2022-07-18T08:24:28;102038.97;;;29.82;27.58
70925;BME280;58577;52.410;13.242;2022-07-18T08:26:53;102028.56;;;30.01;28.61
70925;BME280;58577;52.410;13.242;2022-07-18T08:29:19;102032.41;;;29.35;28.66
70925;BME280;58577;52.410;13.242;2022-07-18T08:31:44;102027.97;;;29.46;29.94
70925;BME280;58577;52.410;13.242;2022-07-18T08:34:10;102040.50;;;28.59;29.60
70925;BME280;58577;52.410;13.242;2022-07-18T08:36:35;102013.88;;;28.35;32.23
70925;BME280;58577;52.410;13.242;2022-07-18T08:39:01;102026.00;;;27.48;31.96
70925;BME280;58577;52.410;13.242;2022-07-18T08:41:27;102028.47;;;27.13;33.38
70925;BME280;58577;52.410;13.242;2022-07-18T08:43:53;102035.34;;;26.78;32.18
70925;BME280;58577;52.410;13.242;2022-07-18T08:46:20;102019.88;;;27.28;34.04
70925;BME280;58577;52.410;13.242;2022-07-18T08:48:48;102022.16;;;27.31;34.17
70925;BME280;58577;52.410;13.242;2022-07-18T08:51:14;102029.53;;;27.37;32.87
70925;BME280;58577;52.410;13.242;2022-07-18T08:53:40;102044.63;;;27.53;32.17
70925;BME280;58577;52.410;13.242;2022-07-18T08:56:06;102043.03;;;27.45;30.69
70925;BME280;58577;52.410;13.242;2022-07-18T08:58:32;102047.25;;;28.63;29.85
70925;BME280;58577;52.410;13.242;2022-07-18T09:00:58;102052.81;;;29.70;26.95
70925;BME280;58577;52.410;13.242;2022-07-18T09:03:24;102039.75;;;30.06;27.92
70925;BME280;58577;52.410;13.242;2022-07-18T09:06:13;102041.47;;;29.95;27.60
70925;BME280;58577;52.410;13.242;2022-07-18T09:08:40;102038.25;;;29.74;28.24
70925;BME280;58577;52.410;13.242;2022-07-18T09:11:22;102038.97;;;29.70;28.01
70925;BME280;58577;52.410;13.242;2022-07-18T09:13:47;102037.53;;;30.19;28.14
70925;BME280;58577;52.410;13.242;2022-07-18T09:16:14;102048.03;;;29.41;27.18
70925;BME280;58577;52.410;13.242;2022-07-18T09:18:41;102036.03;;;29.24;28.45
70925;BME280;58577;52.410;13.242;2022-07-18T09:23:43;102036.22;;;28.75;29.22
70925;BME280;58577;52.410;13.242;2022-07-18T09:26:10;102030.34;;;28.41;28.36
70925;BME280;58577;52.410;13.242;2022-07-18T09:28:47;102032.16;;;28.90;28.31
70925;BME280;58577;52.410;13.242;2022-07-18T09:31:21;102031.94;;;30.03;28.54
70925;BME280;58577;52.410;13.242;2022-07-18T09:34:01;102041.06;;;30.61;26.42
70925;BME280;58577;52.410;13.242;2022-07-18T09:36:28;102038.28;;;31.28;26.20
70925;BME280;58577;52.410;13.242;2022-07-18T09:38:55;102032.50;;;30.62;26.02
70925;BME280;58577;52.410;13.242;2022-07-18T09:41:28;102034.47;;;29.28;25.78
70925;BME280;58577;52.410;13.242;2022-07-18T09:43:58;102022.03;;;28.83;28.89
70925;BME280;58577;52.410;13.242;2022-07-18T09:46:23;102007.34;;;28.17;29.24
70925;BME280;58577;52.410;13.242;2022-07-18T09:49:08;102015.31;;;28.37;28.70
70925;BME280;58577;52.410;13.242;2022-07-18T09:51:34;102007.59;;;28.58;31.29
70925;BME280;58577;52.410;13.242;2022-07-18T09:54:00;102013.28;;;29.57;29.52
70925;BME280;58577;52.410;13.242;2022-07-18T09:56:27;102031.66;;;29.64;28.27
70925;BME280;58577;52.410;13.242;2022-07-18T09:58:56;102022.16;;;29.71;27.88
70925;BME280;58577;52.410;13.242;2022-07-18T10:01:22;102030.28;;;29.90;27.38
70925;BME280;58577;52.410;13.242;2022-07-18T10:03:48;102028.09;;;29.28;27.16
70925;BME280;58577;52.410;13.242;2022-07-18T10:06:15;102008.88;;;29.21;29.43
70925;BME280;58577;52.410;13.242;2022-07-18T10:08:41;102017.50;;;29.01;28.28
70925;BME280;58577;52.410;13.242;2022-07-18T10:11:07;102036.88;;;29.36;27.50
70925;BME280;58577;52.410;13.242;2022-07-18T10:13:34;102022.22;;;29.12;28.83
70925;BME280;58577;52.410;13.242;2022-07-18T10:16:01;102018.22;;;29.44;28.83
70925;BME280;58577;52.410;13.242;2022-07-18T10:18:32;102027.09;;;29.10;26.56
70925;BME280;58577;52.410;13.242;2022-07-18T10:21:06;102014.72;;;28.77;28.18
70925;BME280;58577;52.410;13.242;2022-07-18T10:23:42;102017.00;;;28.57;28.66
70925;BME280;58577;52.410;13.242;2022-07-18T10:26:17;102026.16;;;28.93;28.11
70925;BME280;58577;52.410;13.242;2022-07-18T10:37:06;102012.22;;;29.35;28.41
70925;BME280;58577;52.410;13.242;2022-07-18T10:39:42;102014.00;;;29.53;26.62
70925;BME280;58577;52.410;13.242;2022-07-18T10:42:13;102014.47;;;30.31;26.14
70925;BME280;58577;52.410;13.242;2022-07-18T10:44:38;102014.66;;;29.19;25.86
70925;BME280;58577;52.410;13.242;2022-07-18T10:47:14;102002.06;;;29.76;26.56
70925;BME280;58577;52.410;13.242;2022-07-18T10:50:03;102016.06;;;29.98;24.99
70925;BME280;58577;52.410;13.242;2022-07-18T11:00:27;101991.31;;;30.20;27.12
70925;BME280;58577;52.410;13.242;2022-07-18T11:16:18;101995.44;;;31.58;24.21
70925;BME280;58577;52.410;13.242;2022-07-18T11:21:33;101984.69;;;30.21;25.22
70925;BME280;58577;52.410;13.242;2022-07-18T11:24:17;101973.16;;;30.92;26.57
70925;BME280;58577;52.410;13.242;2022-07-18T11:27:04;101976.44;;;31.28;25.27
70925;BME280;58577;52.410;13.242;2022-07-18T11:32:36;101959.34;;;30.12;25.11
70925;BME280;58577;52.410;13.242;2022-07-18T11:35:23;101955.28;;;29.74;27.16
70925;BME280;58577;52.410;13.242;2022-07-18T11:38:10;101936.66;;;29.06;28.38
70925;BME280;58577;52.410;13.242;2022-07-18T11:40:56;101948.66;;;29.35;26.02
70925;BME280;58577;52.410;13.242;2022-07-18T11:43:46;101939.91;;;28.91;28.04
70925;BME280;58577;52.410;13.242;2022-07-18T11:46:32;101943.03;;;29.06;27.58
70925;BME280;58577;52.410;13.242;2022-07-18T11:49:18;101947.13;;;28.92;27.93
70925;BME280;58577;52.410;13.242;2022-07-18T11:52:06;101932.47;;;28.56;30.02
70925;BME280;58577;52.410;13.242;2022-07-18T11:54:52;101942.31;;;28.75;29.56
70925;BME280;58577;52.410;13.242;2022-07-18T11:57:38;101932.69;;;28.66;29.67
70925;BME280;58577;52.410;13.242;2022-07-18T12:00:24;101927.69;;;28.63;30.48
70925;BME280;58577;52.410;13.242;2022-07-18T12:03:16;101934.66;;;28.23;28.27
70925;BME280;58577;52.410;13.242;2022-07-18T12:06:19;101917.91;;;28.49;31.57
70925;BME280;58577;52.410;13.242;2022-07-18T12:09:05;101938.91;;;28.50;28.72
70925;BME280;58577;52.410;13.242;2022-07-18T12:11:52;101929.03;;;28.18;29.32
70925;BME280;58577;52.410;13.242;2022-07-18T12:14:38;101918.25;;;28.40;29.55
70925;BME280;58577;52.410;13.242;2022-07-18T12:17:25;101908.72;;;28.78;31.05
70925;BME280;58577;52.410;13.242;2022-07-18T12:20:14;101925.63;;;29.17;29.10
70925;BME280;58577;52.410;13.242;2022-07-18T12:25:56;101919.59;;;29.73;27.61
70925;BME280;58577;52.410;13.242;2022-07-18T12:28:46;101915.69;;;29.86;28.51
70925;BME280;58577;52.410;13.242;2022-07-18T12:31:40;101922.13;;;29.10;27.88
70925;BME280;58577;52.410;13.242;2022-07-18T12:34:26;101912.84;;;29.40;28.87
70925;BME280;58577;52.410;13.242;2022-07-18T12:37:12;101898.78;;;29.30;28.75
70925;BME280;58577;52.410;13.242;2022-07-18T12:40:03;101896.78;;;29.25;29.04
70925;BME280;58577;52.410;13.242;2022-07-18T12:43:06;101907.75;;;29.49;27.57
70925;BME280;58577;52.410;13.242;2022-07-18T12:45:54;101910.91;;;29.81;27.08
70925;BME280;58577;52.410;13.242;2022-07-18T12:48:40;101898.50;;;29.84;27.66
70925;BME280;58577;52.410;13.242;2022-07-18T12:51:29;101888.78;;;29.81;29.02
70925;BME280;58577;52.410;13.242;2022-07-18T12:54:16;101895.00;;;30.22;27.17
70925;BME280;58577;52.410;13.242;2022-07-18T12:57:03;101883.28;;;30.49;28.06
70925;BME280;58577;52.410;13.242;2022-07-18T12:59:49;101890.91;;;30.58;26.68
70925;BME280;58577;52.410;13.242;2022-07-18T13:02:35;101871.06;;;30.45;28.46
70925;BME280;58577;52.410;13.242;2022-07-18T13:05:22;101888.25;;;29.84;26.52
70925;BME280;58577;52.410;13.242;2022-07-18T13:08:09;101860.44;;;29.62;29.66
70925;BME280;58577;52.410;13.242;2022-07-18T13:10:57;101858.78;;;29.32;29.70
70925;BME280;58577;52.410;13.242;2022-07-18T13:13:43;101864.31;;;29.20;29.90
70925;BME280;58577;52.410;13.242;2022-07-18T13:16:29;101868.97;;;28.56;28.79
70925;BME280;58577;52.410;13.242;2022-07-18T13:19:16;101863.81;;;28.59;29.43
70925;BME280;58577;52.410;13.242;2022-07-18T13:22:03;101852.88;;;28.53;30.64
70925;BME280;58577;52.410;13.242;2022-07-18T13:24:48;101851.66;;;28.37;30.79
70925;BME280;58577;52.410;13.242;2022-07-18T13:27:36;101841.94;;;28.46;31.28
70925;BME280;58577;52.410;13.242;2022-07-18T13:30:22;101848.28;;;28.47;30.65
70925;BME280;58577;52.410;13.242;2022-07-18T13:33:08;101848.66;;;28.27;31.03
70925;BME280;58577;52.410;13.242;2022-07-18T13:35:54;101852.25;;;28.39;30.04